Terminal Aerodrome Forecast
Issued by NWS Binghamton, NY

Home | Current Version | Previous Version | Text Only | Print | Product List | Glossary On
Versions: 1 2 3 4 5 6 7 8 9 10 11 12 13 14 15 16 17 18 19
033
FTUS41 KBGM 261400 AAA
TAFBGM
TAF AMD
KBGM 261400Z 2614/2712 08005KT P6SM OVC012
      TEMPO 2614/2617 SCT012 BKN040
     FM261700 15008KT P6SM SCT025 BKN045
      TEMPO 2617/2620 OVC025
     FM270300 15005KT P6SM OVC015=

USA.gov is the U.S. government's official web portal to all federal, state and local government web resources and services.